Time;durP1;ratioP1;P1;durP2;ratioP2;P2;SDS_P1;SDS_P2;PMS_P1;PMS_P2;Temp;Humidity;BMP_temperature;BMP_pressure;BME280_temperature;BME280_humidity;BME280_pressure;Samples;Min_cycle;Max_cycle;Signal;HPM_P1;HPM_P2
2021/06/06 00:01:26;;;;;;;8.20;5.92;;;;;;;15.79;100.00;101347.29;1758356;81;20887;-74
2021/06/06 00:04:00;;;;;;;12.90;5.75;;;;;;;15.81;100.00;101348.02;1757978;81;20954;-74
2021/06/06 00:06:31;;;;;;;8.98;5.70;;;;;;;15.83;100.00;101339.56;1758516;81;21557;-73
2021/06/06 00:08:59;;;;;;;8.40;5.75;;;;;;;15.85;100.00;101332.92;1758345;81;21165;-75
2021/06/06 00:11:31;;;;;;;9.08;6.03;;;;;;;15.83;100.00;101323.87;1758163;81;21478;-73
2021/06/06 00:14:02;;;;;;;7.50;5.22;;;;;;;15.80;100.00;101314.95;1758029;81;21027;-74
2021/06/06 00:16:35;;;;;;;6.83;6.03;;;;;;;15.78;100.00;101310.31;1757883;81;20900;-72
2021/06/06 00:19:02;;;;;;;6.93;5.70;;;;;;;15.78;100.00;101306.86;1758235;81;21520;-72
2021/06/06 00:21:29;;;;;;;10.58;6.00;;;;;;;15.78;100.00;101308.17;1758192;81;21283;-72
2021/06/06 00:23:56;;;;;;;10.72;6.35;;;;;;;15.78;100.00;101314.71;1757803;81;21510;-72
2021/06/06 00:26:24;;;;;;;8.08;5.92;;;;;;;15.79;100.00;101312.46;1758108;81;20930;-71
2021/06/06 00:28:51;;;;;;;7.47;5.80;;;;;;;15.76;100.00;101307.47;1758087;81;20994;-71
2021/06/06 00:31:19;;;;;;;8.73;5.85;;;;;;;15.75;100.00;101309.24;1758348;81;21002;-71
2021/06/06 00:33:49;;;;;;;10.95;5.53;;;;;;;15.77;100.00;101307.33;1758234;81;21148;-71
2021/06/06 00:36:17;;;;;;;6.95;5.50;;;;;;;15.78;100.00;101301.63;1758323;81;20978;-71
2021/06/06 00:38:45;;;;;;;8.25;5.35;;;;;;;15.79;100.00;101298.88;1757963;81;21003;-71
2021/06/06 00:41:13;;;;;;;10.90;5.53;;;;;;;15.80;100.00;101296.62;1758225;81;20999;-70
2021/06/06 00:43:40;;;;;;;8.35;5.45;;;;;;;15.82;100.00;101292.13;1758086;81;20987;-71
2021/06/06 00:46:08;;;;;;;11.43;5.20;;;;;;;15.84;100.00;101285.45;1758512;81;21769;-71
2021/06/06 00:48:35;;;;;;;6.17;5.50;;;;;;;15.87;100.00;101283.89;1758153;81;20939;-69
2021/06/06 00:51:28;;;;;;;6.72;5.50;;;;;;;15.91;100.00;101288.42;1758496;81;20888;-68
2021/06/06 00:54:07;;;;;;;11.30;5.50;;;;;;;15.91;100.00;101289.25;1757623;81;21003;-70
2021/06/06 00:56:35;;;;;;;8.50;6.03;;;;;;;15.91;100.00;101294.96;1758115;81;21041;-70
2021/06/06 00:59:02;;;;;;;9.73;6.20;;;;;;;15.90;100.00;101300.66;1758083;81;21797;-72
2021/06/06 01:01:31;;;;;;;9.93;6.12;;;;;;;15.87;100.00;101294.36;1758218;81;21011;-72
2021/06/06 01:03:59;;;;;;;7.90;6.50;;;;;;;15.85;100.00;101301.52;1757929;81;20955;-71
2021/06/06 01:06:38;;;;;;;7.47;5.50;;;;;;;15.85;100.00;101294.97;1758006;81;20982;-71
2021/06/06 01:09:06;;;;;;;10.32;5.75;;;;;;;15.85;100.00;101291.05;1757021;81;20995;-71
2021/06/06 01:11:59;;;;;;;7.70;5.20;;;;;;;15.87;100.00;101295.67;1757993;81;22265;-71
2021/06/06 01:14:45;;;;;;;11.53;5.80;;;;;;;15.86;100.00;101294.84;1757722;81;21544;-72
2021/06/06 01:17:23;;;;;;;8.50;5.30;;;;;;;15.89;100.00;101289.83;1758282;81;20975;-73
2021/06/06 01:20:04;;;;;;;9.48;5.67;;;;;;;15.91;100.00;101284.02;1758017;81;21054;-73
2021/06/06 01:22:56;;;;;;;7.75;5.35;;;;;;;15.96;100.00;101273.17;1717792;82;20888;-72
2021/06/06 01:25:45;;;;;;;7.85;5.58;;;;;;;15.98;100.00;101272.13;1751097;82;21743;-72
2021/06/06 01:28:20;;;;;;;5.65;4.97;;;;;;;16.01;100.00;101270.57;1725556;82;21454;-72
2021/06/06 01:30:52;;;;;;;6.42;5.35;;;;;;;16.02;100.00;101265.67;1750746;81;20923;-72
2021/06/06 01:33:27;;;;;;;5.95;5.35;;;;;;;16.02;100.00;101264.86;1730601;83;20981;-72
2021/06/06 01:36:17;;;;;;;9.08;5.50;;;;;;;16.02;100.00;101265.67;1730288;83;21048;-72
2021/06/06 01:38:58;;;;;;;6.15;5.12;;;;;;;16.04;100.00;101262.94;1730674;83;21120;-73
2021/06/06 01:41:29;;;;;;;7.75;5.42;;;;;;;16.05;100.00;101259.38;1730863;83;20981;-72
2021/06/06 01:43:58;;;;;;;11.63;5.58;;;;;;;16.06;100.00;101255.78;1730700;83;21075;-72
2021/06/06 01:46:39;;;;;;;7.97;5.33;;;;;;;16.07;100.00;101255.68;1730239;83;21020;-73
2021/06/06 01:49:07;;;;;;;5.87;5.17;;;;;;;16.09;100.00;101251.61;1730737;83;20956;-73
2021/06/06 01:51:39;;;;;;;11.15;5.37;;;;;;;16.09;100.00;101247.69;1730727;83;21143;-73
2021/06/06 01:54:08;;;;;;;5.70;5.15;;;;;;;16.09;100.00;101242.45;1730036;83;21549;-72
2021/06/06 01:56:39;;;;;;;11.08;5.78;;;;;;;16.10;100.00;101245.44;1703699;83;21776;-73
2021/06/06 01:59:17;;;;;;;6.22;4.92;;;;;;;16.13;100.00;101243.87;1730208;83;21053;-74
2021/06/06 02:01:46;;;;;;;6.55;4.78;;;;;;;16.15;100.00;101240.65;1730576;83;20986;-76
2021/06/06 02:04:13;;;;;;;7.55;5.20;;;;;;;16.15;100.00;101245.88;1730442;83;21166;-74
2021/06/06 02:06:48;;;;;;;7.47;5.30;;;;;;;16.13;100.00;101237.33;1730634;83;20999;-74
2021/06/06 02:09:22;;;;;;;7.35;5.60;;;;;;;16.13;100.00;101248.64;1730141;83;20948;-74
2021/06/06 02:12:00;;;;;;;7.90;5.28;;;;;;;16.14;100.00;101255.55;1729782;83;21506;-74
2021/06/06 02:14:33;;;;;;;7.40;4.85;;;;;;;16.14;100.00;101255.55;1730070;83;20991;-75
2021/06/06 02:17:06;;;;;;;11.63;5.47;;;;;;;16.14;100.00;101252.09;1730522;83;21110;-74
2021/06/06 02:19:38;;;;;;;6.95;4.80;;;;;;;16.14;100.00;101256.86;1728989;83;21055;-75
2021/06/06 02:22:12;;;;;;;6.42;4.92;;;;;;;16.13;100.00;101255.66;1729413;82;21000;-74
2021/06/06 02:24:41;;;;;;;5.53;5.00;;;;;;;16.14;100.00;101256.86;1699101;83;21063;-75
2021/06/06 02:27:27;;;;;;;7.05;4.83;;;;;;;16.14;100.00;101262.09;1729894;83;22135;-74
2021/06/06 02:30:19;;;;;;;8.63;5.50;;;;;;;16.15;100.00;101263.74;1700969;83;21098;-73
2021/06/06 02:33:21;;;;;;;9.20;5.50;;;;;;;16.16;100.00;101258.03;1702311;83;21069;-75
2021/06/06 02:36:02;;;;;;;6.87;5.20;;;;;;;16.15;100.00;101273.38;1752191;81;21054;-75
2021/06/06 02:38:41;;;;;;;8.75;5.30;;;;;;;16.13;100.00;101280.06;1763360;81;20935;-76
2021/06/06 02:41:20;;;;;;;5.60;4.97;;;;;;;16.11;100.00;101285.91;1763525;81;21667;-74
2021/06/06 02:43:59;;;;;;;9.60;5.95;;;;;;;16.06;100.00;101293.75;1762311;81;21500;-73
2021/06/06 02:46:27;;;;;;;8.35;5.00;;;;;;;16.02;100.00;101287.11;1763252;81;20990;-75
2021/06/06 02:49:07;;;;;;;7.22;4.95;;;;;;;15.95;100.00;101288.07;1763296;81;20995;-75
2021/06/06 02:51:41;;;;;;;6.87;5.25;;;;;;;15.93;100.00;101295.19;1734540;81;20907;-71
2021/06/06 02:54:13;;;;;;;6.22;5.10;;;;;;;15.91;100.00;101294.48;1763624;81;20856;-75
2021/06/06 02:56:46;;;;;;;7.90;5.00;;;;;;;15.87;100.00;101291.75;1763211;81;20966;-77
2021/06/06 02:59:25;;;;;;;14.80;5.70;;;;;;;15.84;100.00;101295.44;1763788;81;21509;-73
2021/06/06 03:01:59;;;;;;;6.05;4.75;;;;;;;15.80;100.00;101297.93;1763341;81;20873;-73
2021/06/06 03:04:33;;;;;;;8.58;5.10;;;;;;;15.79;100.00;101296.26;1732180;81;21509;-74
2021/06/06 03:07:05;;;;;;;7.85;5.15;;;;;;;15.77;100.00;101289.48;1763372;81;20883;-74
2021/06/06 03:09:34;;;;;;;5.67;4.85;;;;;;;15.78;100.00;101288.55;1763511;81;21833;-73
2021/06/06 03:12:07;;;;;;;8.75;5.08;;;;;;;15.81;100.00;101286.99;1756595;81;21046;-73
2021/06/06 03:14:41;;;;;;;7.17;5.20;;;;;;;15.82;100.00;101291.28;1763265;81;20959;-74
2021/06/06 03:17:23;;;;;;;8.85;4.97;;;;;;;15.84;100.00;101285.45;1763543;81;20891;-74
2021/06/06 03:19:54;;;;;;;5.47;4.97;;;;;;;15.85;100.00;101285.81;1763648;81;20930;-73
2021/06/06 03:22:34;;;;;;;6.87;5.53;;;;;;;15.86;100.00;101276.98;1732352;81;20927;-73
2021/06/06 03:25:15;;;;;;;8.63;5.28;;;;;;;15.85;100.00;101281.41;1766682;81;21029;-73
2021/06/06 03:27:43;;;;;;;8.18;4.92;;;;;;;15.82;100.00;101279.51;1766770;81;21525;-75
2021/06/06 03:30:42;;;;;;;8.78;5.00;;;;;;;15.78;100.00;101287.23;1766941;81;20972;-74
2021/06/06 03:33:16;;;;;;;7.80;4.85;;;;;;;15.76;100.00;101286.03;1766214;81;21421;-72
2021/06/06 03:35:43;;;;;;;7.77;4.53;;;;;;;15.76;100.00;101285.22;1767201;81;21144;-73
2021/06/06 03:38:11;;;;;;;6.58;5.03;;;;;;;15.76;100.00;101291.27;1766826;81;20895;-73
2021/06/06 03:40:42;;;;;;;10.28;5.37;;;;;;;15.77;100.00;101291.63;1766968;81;21501;-73
2021/06/06 03:43:20;;;;;;;7.40;4.45;;;;;;;15.78;100.00;101285.45;1764990;81;21050;-72
2021/06/06 03:45:48;;;;;;;5.87;4.70;;;;;;;15.84;100.00;101284.97;1767029;81;21633;-73
2021/06/06 03:48:15;;;;;;;7.37;4.62;;;;;;;15.92;100.00;101273.08;1738794;81;21066;-73
2021/06/06 03:50:42;;;;;;;5.70;4.55;;;;;;;16.00;100.00;101275.44;1766827;81;20935;-71
2021/06/06 03:53:11;;;;;;;8.30;5.17;;;;;;;16.07;100.00;101279.72;1766907;81;20918;-73
2021/06/06 03:55:39;;;;;;;7.37;4.50;;;;;;;16.07;100.00;101283.17;1767103;81;20977;-71
2021/06/06 03:58:07;;;;;;;7.45;4.70;;;;;;;16.06;100.00;101282.80;1766786;81;21050;-71
2021/06/06 04:00:43;;;;;;;6.53;4.90;;;;;;;16.07;100.00;101300.19;1767059;81;21025;-71
2021/06/06 04:03:11;;;;;;;6.22;4.30;;;;;;;16.07;100.00;101302.81;1766707;81;21474;-71
2021/06/06 04:05:43;;;;;;;6.28;4.30;;;;;;;16.10;100.00;101300.42;1766912;81;20895;-72
2021/06/06 04:08:12;;;;;;;7.20;4.80;;;;;;;16.14;100.00;101296.61;1767290;81;20991;-71
2021/06/06 04:10:41;;;;;;;7.55;4.40;;;;;;;16.16;100.00;101300.77;1766265;81;21497;-71
2021/06/06 04:13:10;;;;;;;8.88;4.20;;;;;;;16.21;100.00;101293.88;1766833;81;21169;-72
2021/06/06 04:15:39;;;;;;;9.80;4.17;;;;;;;16.25;100.00;101296.58;1767002;81;21777;-72
2021/06/06 04:18:25;;;;;;;7.50;4.15;;;;;;;16.29;100.00;101295.39;1766906;81;20974;-72
2021/06/06 04:20:56;;;;;;;6.70;4.70;;;;;;;16.36;100.00;101302.64;1739288;81;21057;-72
2021/06/06 04:23:25;;;;;;;6.50;4.25;;;;;;;16.41;100.00;101295.23;1766909;81;21664;-69
2021/06/06 04:25:54;;;;;;;6.65;4.33;;;;;;;16.47;100.00;101286.52;1767072;81;21168;-71
2021/06/06 04:28:23;;;;;;;6.03;4.25;;;;;;;16.52;100.00;101283.06;1767023;81;21004;-72
2021/06/06 04:30:52;;;;;;;7.95;4.10;;;;;;;16.56;100.00;101276.16;1767189;81;20987;-70
2021/06/06 04:33:19;;;;;;;9.25;4.40;;;;;;;16.62;100.00;101284.02;1738950;81;21047;-69
2021/06/06 04:35:47;;;;;;;8.40;4.53;;;;;;;16.67;100.00;101281.37;1767122;81;20970;-70
2021/06/06 04:38:19;;;;;;;6.33;4.72;;;;;;;16.72;100.00;101281.01;1767026;81;21788;-70
2021/06/06 04:40:50;;;;;;;5.40;4.83;;;;;;;16.76;100.00;101286.33;1767139;81;20978;-70
2021/06/06 04:43:20;;;;;;;7.63;4.43;;;;;;;16.83;100.00;101288.33;1767170;81;20958;-71
2021/06/06 04:45:50;;;;;;;6.87;4.45;;;;;;;16.91;100.00;101290.34;1767154;81;21034;-71
2021/06/06 04:48:27;;;;;;;7.72;4.12;;;;;;;16.98;100.00;101293.25;1738701;81;21461;-71
2021/06/06 04:50:56;;;;;;;5.65;4.35;;;;;;;17.07;100.00;101293.83;1766694;81;23003;-71
2021/06/06 04:53:24;;;;;;;6.65;4.53;;;;;;;17.15;99.67;101294.01;1766765;81;21337;-71
2021/06/06 04:55:56;;;;;;;4.62;4.00;;;;;;;17.20;98.26;101303.15;1767059;81;21544;-70
2021/06/06 04:58:25;;;;;;;4.45;4.00;;;;;;;17.25;97.25;101296.22;1764042;81;20982;-69
2021/06/06 05:00:54;;;;;;;6.40;3.83;;;;;;;17.30;96.85;101297.97;1766976;81;21461;-70
2021/06/06 05:03:25;;;;;;;5.03;4.03;;;;;;;17.33;96.32;101293.30;1767076;81;21025;-71
2021/06/06 05:05:53;;;;;;;7.30;3.95;;;;;;;17.36;96.01;101281.23;1766994;81;21518;-71
2021/06/06 05:08:22;;;;;;;6.50;4.17;;;;;;;17.40;95.99;101285.73;1766916;81;21085;-71
2021/06/06 05:10:50;;;;;;;5.97;4.20;;;;;;;17.44;95.35;101292.40;1738489;81;21061;-71
2021/06/06 05:13:19;;;;;;;8.18;4.40;;;;;;;17.45;94.94;101282.27;1766872;81;20883;-72
2021/06/06 05:15:49;;;;;;;6.20;3.90;;;;;;;17.49;95.01;101290.20;1767055;81;21128;-72
2021/06/06 05:18:18;;;;;;;5.95;4.12;;;;;;;17.54;95.00;101295.91;1766805;81;20935;-73
2021/06/06 05:20:47;;;;;;;7.00;3.83;;;;;;;17.58;94.12;101299.95;1766641;81;21587;-72
2021/06/06 05:23:17;;;;;;;7.03;4.20;;;;;;;17.63;94.18;101296.94;1766090;81;20982;-71
2021/06/06 05:25:44;;;;;;;7.60;4.08;;;;;;;17.67;93.56;101308.85;1763450;81;21022;-72
2021/06/06 05:28:15;;;;;;;7.10;4.00;;;;;;;17.67;93.76;101310.16;1763412;81;21779;-70
2021/06/06 05:30:42;;;;;;;7.37;4.75;;;;;;;17.62;93.51;101316.27;1763441;81;21512;-71
2021/06/06 05:33:09;;;;;;;8.85;4.45;;;;;;;17.60;93.64;101318.20;1763287;81;20935;-70
2021/06/06 05:35:36;;;;;;;9.00;4.53;;;;;;;17.58;93.82;101320.14;1763274;81;20970;-70
2021/06/06 05:38:07;;;;;;;10.40;4.87;;;;;;;17.62;94.41;101321.04;1763305;81;21041;-69
2021/06/06 05:40:35;;;;;;;7.45;4.20;;;;;;;17.69;94.17;101334.00;1763168;81;21088;-72
2021/06/06 05:43:03;;;;;;;6.72;4.37;;;;;;;17.67;93.17;101325.91;1763018;81;21049;-72
2021/06/06 05:45:31;;;;;;;6.42;4.17;;;;;;;17.68;93.14;101323.14;1763274;81;21504;-78
2021/06/06 05:48:00;;;;;;;5.85;3.85;;;;;;;17.76;93.01;101323.81;1763131;81;20935;-71
2021/06/06 05:50:30;;;;;;;6.35;4.45;;;;;;;17.79;91.82;101328.32;1763436;81;21053;-71
2021/06/06 05:53:16;;;;;;;7.53;4.83;;;;;;;17.80;91.20;101329.99;1763246;81;21937;-69
2021/06/06 05:55:44;;;;;;;7.00;4.22;;;;;;;17.83;91.36;101326.27;1763160;81;20974;-71
2021/06/06 05:58:12;;;;;;;8.50;3.72;;;;;;;17.91;90.62;101323.80;1763161;81;20955;-70
2021/06/06 06:00:42;;;;;;;7.85;4.37;;;;;;;17.91;89.25;101320.70;1763360;81;21562;-73
2021/06/06 06:03:10;;;;;;;5.28;4.12;;;;;;;17.98;88.84;101328.41;1763487;81;21441;-74
2021/06/06 06:05:37;;;;;;;5.55;4.60;;;;;;;18.03;88.21;101327.98;1763328;81;21123;-73
2021/06/06 06:08:18;;;;;;;6.22;4.03;;;;;;;18.07;88.23;101323.30;1763263;81;20919;-74
2021/06/06 06:10:45;;;;;;;6.58;3.80;;;;;;;18.13;87.43;101322.29;1763179;81;21611;-73
2021/06/06 06:13:12;;;;;;;6.15;3.80;;;;;;;18.11;86.49;101308.47;1763222;81;20967;-72
2021/06/06 06:15:39;;;;;;;6.15;4.10;;;;;;;18.13;85.90;101307.84;1763444;81;21045;-74
2021/06/06 06:18:07;;;;;;;8.53;4.50;;;;;;;18.12;86.28;101310.14;1763268;81;21170;-72
2021/06/06 06:20:35;;;;;;;4.85;4.30;;;;;;;18.14;86.40;101309.98;1763103;81;21548;-71
2021/06/06 06:23:02;;;;;;;6.08;4.35;;;;;;;18.16;86.23;101304.11;1763109;81;21631;-72
2021/06/06 06:25:29;;;;;;;6.40;3.87;;;;;;;18.15;86.47;101299.36;1763361;81;21556;-73
2021/06/06 06:27:56;;;;;;;9.68;4.00;;;;;;;18.19;86.43;101307.30;1763544;81;20990;-72
2021/06/06 06:30:30;;;;;;;5.78;3.58;;;;;;;18.25;85.94;101298.07;1758705;81;21877;-72
2021/06/06 06:32:57;;;;;;;5.30;4.10;;;;;;;18.31;85.92;101304.09;1763703;81;20962;-73
2021/06/06 06:35:25;;;;;;;5.65;4.20;;;;;;;18.36;86.11;101297.47;1763362;81;21312;-72
2021/06/06 06:37:52;;;;;;;8.65;4.05;;;;;;;18.41;86.40;101297.06;1763511;81;20971;-75
2021/06/06 06:40:20;;;;;;;7.50;4.25;;;;;;;18.45;86.41;101297.13;1763682;81;21465;-74
2021/06/06 06:42:49;;;;;;;4.45;4.05;;;;;;;18.35;84.92;101293.64;1763493;81;21144;-79
2021/06/06 06:45:20;;;;;;;5.37;4.47;;;;;;;18.29;85.70;101302.06;1763905;81;20978;-78
2021/06/06 06:47:47;;;;;;;5.95;4.20;;;;;;;18.30;86.42;101291.44;1763720;81;20966;-72
2021/06/06 06:50:15;;;;;;;9.08;4.40;;;;;;;18.20;87.25;101290.58;1763670;81;20903;-74
2021/06/06 06:52:42;;;;;;;6.45;4.72;;;;;;;18.10;87.71;101292.34;1763841;81;21010;-77
2021/06/06 06:55:16;;;;;;;5.22;4.42;;;;;;;18.05;87.96;101296.35;1763531;81;21969;-71
2021/06/06 06:57:43;;;;;;;8.93;4.28;;;;;;;18.02;88.31;101291.37;1763434;81;21777;-76
2021/06/06 07:00:16;;;;;;;7.62;4.40;;;;;;;17.98;88.19;101294.27;1763683;81;20962;-77
2021/06/06 07:02:44;;;;;;;6.55;4.28;;;;;;;17.94;88.33;101291.55;1763346;81;20993;-72
2021/06/06 07:05:12;;;;;;;11.40;4.95;;;;;;;17.98;88.15;101283.76;1763935;81;20975;-73
2021/06/06 07:07:41;;;;;;;6.25;4.30;;;;;;;18.03;88.51;101279.40;1763707;81;20978;-72
2021/06/06 07:10:11;;;;;;;8.35;4.62;;;;;;;18.17;88.31;101292.16;1763341;81;20991;-76
2021/06/06 07:12:39;;;;;;;6.58;4.30;;;;;;;18.22;86.70;101286.02;1763695;81;21524;-78
2021/06/06 07:15:10;;;;;;;6.20;4.70;;;;;;;18.24;86.28;101292.46;1763439;81;20947;-74
2021/06/06 07:17:37;;;;;;;8.78;5.20;;;;;;;18.19;85.95;101284.97;1731447;81;21121;-83
2021/06/06 07:20:06;;;;;;;7.75;4.85;;;;;;;18.19;86.88;101293.33;1763865;81;21128;-74
2021/06/06 07:22:33;;;;;;;7.75;4.35;;;;;;;18.19;87.27;101286.77;1763384;81;20992;-73
2021/06/06 07:25:00;;;;;;;7.42;4.28;;;;;;;18.32;87.04;101290.81;1763264;81;20935;-72
2021/06/06 07:27:28;;;;;;;4.30;3.90;;;;;;;18.53;85.25;101285.48;1763544;81;20907;-77
2021/06/06 07:29:56;;;;;;;6.95;4.28;;;;;;;18.69;85.29;101282.31;1763894;81;21533;-78
2021/06/06 07:32:23;;;;;;;5.47;4.10;;;;;;;18.85;84.07;101288.69;1763768;81;21763;-72
2021/06/06 07:34:52;;;;;;;8.10;4.00;;;;;;;19.02;81.39;101289.27;1763591;81;20986;-73
2021/06/06 07:37:19;;;;;;;4.05;3.67;;;;;;;19.08;79.67;101287.07;1763424;81;21037;-74
2021/06/06 07:39:46;;;;;;;5.92;3.90;;;;;;;19.14;79.15;101285.19;1763583;81;21541;-73
2021/06/06 07:42:13;;;;;;;7.10;3.67;;;;;;;19.16;77.72;101281.44;1763454;81;21054;-82
2021/06/06 07:44:41;;;;;;;4.42;3.95;;;;;;;19.24;77.20;101280.74;1763516;81;21564;-77
2021/06/06 07:47:08;;;;;;;5.70;4.22;;;;;;;19.28;77.87;101272.41;1763522;81;20954;-77
2021/06/06 07:49:36;;;;;;;4.72;4.12;;;;;;;19.20;79.08;101278.88;1763429;81;21019;-74
2021/06/06 07:52:04;;;;;;;7.15;4.58;;;;;;;19.04;79.16;101282.57;1763354;81;21009;-78
2021/06/06 07:54:33;;;;;;;4.62;4.10;;;;;;;18.96;79.41;101275.38;1763546;81;20891;-78
2021/06/06 07:57:00;;;;;;;9.45;5.12;;;;;;;19.06;80.69;101279.30;1763420;81;21787;-76
2021/06/06 07:59:28;;;;;;;6.85;4.17;;;;;;;19.11;80.51;101279.73;1763323;81;20943;-75
2021/06/06 08:01:55;;;;;;;5.80;3.72;;;;;;;19.10;79.11;101283.32;1763451;81;20946;-69
2021/06/06 08:04:24;;;;;;;4.50;3.62;;;;;;;19.16;77.92;101281.92;1763852;81;21109;-77
2021/06/06 08:06:53;;;;;;;5.00;3.30;;;;;;;19.21;77.28;101283.66;1763488;81;20983;-76
2021/06/06 08:09:20;;;;;;;7.47;4.30;;;;;;;19.31;77.27;101287.91;1763707;81;21798;-74
2021/06/06 08:11:48;;;;;;;5.70;4.00;;;;;;;19.35;75.32;101285.34;1763088;81;20986;-73
2021/06/06 08:14:18;;;;;;;8.30;3.98;;;;;;;19.27;74.85;101283.89;1763511;81;21029;-76
2021/06/06 08:16:46;;;;;;;6.17;3.70;;;;;;;19.18;75.62;101287.86;1763258;81;21077;-75
2021/06/06 08:19:13;;;;;;;7.58;3.98;;;;;;;19.15;76.23;101285.51;1763888;81;20855;-82
2021/06/06 08:21:45;;;;;;;5.05;3.95;;;;;;;19.22;76.70;101283.98;1763539;81;21022;-77
2021/06/06 08:24:11;;;;;;;4.85;3.62;;;;;;;19.34;77.11;101283.67;1763219;81;21025;-75
2021/06/06 08:26:38;;;;;;;6.00;3.90;;;;;;;19.51;76.29;101295.30;1763594;81;21024;-81
2021/06/06 08:29:06;;;;;;;4.97;3.72;;;;;;;19.56;74.66;101291.74;1763608;81;20978;-73
2021/06/06 08:31:37;;;;;;;4.50;3.95;;;;;;;19.60;74.90;101286.54;1763468;81;21292;-76
2021/06/06 08:34:06;;;;;;;4.62;3.65;;;;;;;19.72;74.42;101286.70;1763481;81;21124;-79
2021/06/06 08:36:43;;;;;;;5.78;3.75;;;;;;;19.76;74.21;101287.23;1763198;81;20925;-75
2021/06/06 08:39:18;;;;;;;5.10;4.12;;;;;;;19.90;71.67;101285.45;1763875;81;20997;-75
2021/06/06 08:42:00;;;;;;;7.28;4.85;;;;;;;20.05;73.37;101280.86;1763151;81;20931;-80
2021/06/06 08:44:32;;;;;;;6.87;4.60;;;;;;;20.07;73.53;101273.63;1763860;81;20938;-82
2021/06/06 08:47:09;;;;;;;5.70;4.53;;;;;;;20.09;74.75;101285.35;1763464;81;21945;-84
2021/06/06 08:49:46;;;;;;;5.00;4.30;;;;;;;20.04;75.45;101277.87;1759487;81;21494;-77
2021/06/06 08:52:35;;;;;;;7.45;4.72;;;;;;;20.05;75.36;101281.34;1763392;81;20934;-71
2021/06/06 08:55:19;;;;;;;5.17;4.10;;;;;;;19.92;76.15;101286.12;1763946;81;21083;-75
2021/06/06 08:57:55;;;;;;;5.40;4.90;;;;;;;19.86;76.19;101274.37;1763186;81;21001;-77
2021/06/06 09:00:27;;;;;;;11.43;5.15;;;;;;;19.83;75.85;101280.42;1763817;81;21118;-80
2021/06/06 09:02:58;;;;;;;5.45;4.10;;;;;;;19.80;76.69;101282.03;1763611;81;20891;-75
2021/06/06 09:05:35;;;;;;;5.40;4.75;;;;;;;19.76;75.46;101288.07;1763655;81;21051;-76
2021/06/06 09:08:04;;;;;;;6.40;4.37;;;;;;;19.66;74.83;101278.54;1763316;81;21029;-81
2021/06/06 09:10:37;;;;;;;4.85;4.35;;;;;;;19.54;75.93;101276.11;1763612;81;21434;-71
2021/06/06 09:13:07;;;;;;;6.28;4.42;;;;;;;19.66;76.28;101266.21;1763531;81;22110;-75
2021/06/06 09:15:34;;;;;;;5.75;4.33;;;;;;;19.84;75.88;101268.44;1763611;81;20915;-77
2021/06/06 09:18:20;;;;;;;5.85;4.17;;;;;;;20.05;75.70;101270.81;1763535;81;20935;-72
2021/06/06 09:20:48;;;;;;;5.90;4.42;;;;;;;20.20;73.84;101261.41;1762588;81;21029;-72
2021/06/06 09:23:28;;;;;;;5.83;4.75;;;;;;;20.30;73.78;101259.58;1763319;81;21057;-76
2021/06/06 09:26:19;;;;;;;5.92;4.37;;;;;;;20.43;73.30;101250.81;1765593;81;21549;-71
2021/06/06 09:28:49;;;;;;;5.00;4.25;;;;;;;20.58;73.20;101259.05;1766757;81;21005;-75
2021/06/06 09:31:23;;;;;;;8.23;4.35;;;;;;;20.67;71.40;101252.86;1766845;81;33532;-81
2021/06/06 09:33:55;;;;;;;4.65;4.25;;;;;;;20.74;71.25;101259.67;1766723;81;20971;-74
2021/06/06 09:36:40;;;;;;;;;;;;;;;20.88;71.12;101261.75;1769416;81;20880;-71
2021/06/06 09:39:22;;;;;;;5.62;4.85;;;;;;;20.99;70.66;101258.40;1766640;81;21145;-72
2021/06/06 09:41:55;;;;;;;4.20;3.75;;;;;;;21.09;69.85;101257.02;1766946;81;21451;-74
2021/06/06 09:44:31;;;;;;;5.75;4.30;;;;;;;21.11;68.48;101252.39;1766924;81;20954;-79
2021/06/06 09:47:14;;;;;;;9.65;4.90;;;;;;;21.04;68.42;101249.52;1767097;81;21454;-74
2021/06/06 09:49:45;;;;;;;6.58;4.60;;;;;;;21.13;68.21;101243.82;1767036;81;21002;-75
2021/06/06 09:52:42;;;;;;;5.80;4.03;;;;;;;21.11;65.67;101240.52;1764482;81;21908;-74
2021/06/06 09:55:24;;;;;;;6.33;3.87;;;;;;;21.11;66.85;101241.84;1766794;81;20993;-71
2021/06/06 09:57:54;;;;;;;5.07;4.03;;;;;;;21.11;68.39;101244.48;1766636;81;21482;-69
2021/06/06 10:00:27;;;;;;;4.97;3.92;;;;;;;21.18;68.59;101238.09;1766891;81;20938;-74
2021/06/06 10:03:02;;;;;;;5.17;4.40;;;;;;;21.33;68.37;101236.52;1767125;81;20922;-74
2021/06/06 10:05:41;;;;;;;5.78;3.83;;;;;;;21.34;68.26;101236.87;1766766;81;21170;-73
2021/06/06 10:08:26;;;;;;;6.58;4.55;;;;;;;21.22;68.98;101232.33;1766854;81;20914;-71
2021/06/06 10:11:13;;;;;;;6.33;4.17;;;;;;;21.05;69.14;101233.19;1766909;81;20891;-75
2021/06/06 10:13:45;;;;;;;7.30;4.50;;;;;;;21.02;69.87;101237.46;1745195;81;20958;-77
2021/06/06 10:16:17;;;;;;;5.33;3.92;;;;;;;21.22;70.15;101227.56;1767455;81;20947;-80
2021/06/06 10:19:01;;;;;;;8.85;4.65;;;;;;;21.53;69.18;101222.11;1765594;81;21502;-70
2021/06/06 10:21:32;;;;;;;4.80;4.03;;;;;;;21.77;66.84;101225.33;1767100;81;21983;-73
2021/06/06 10:24:15;;;;;;;6.33;4.33;;;;;;;21.93;65.71;101228.05;1767183;81;20985;-71
2021/06/06 10:26:56;;;;;;;4.67;3.72;;;;;;;22.13;65.33;101219.70;1766749;81;21038;-74
2021/06/06 10:29:37;;;;;;;8.03;3.72;;;;;;;22.14;63.79;101210.76;1767078;81;20942;-76
2021/06/06 10:32:35;;;;;;;5.05;3.98;;;;;;;22.04;62.21;101211.42;1766929;81;21167;-73
2021/06/06 10:35:23;;;;;;;4.25;3.77;;;;;;;21.77;63.06;101216.08;1767287;81;20907;-79
2021/06/06 10:37:53;;;;;;;4.53;4.12;;;;;;;21.60;64.24;101218.66;1767604;81;20926;-70
2021/06/06 10:40:35;;;;;;;5.65;4.28;;;;;;;21.54;64.47;101209.22;1767553;81;20955;-73
2021/06/06 10:43:10;;;;;;;4.58;4.17;;;;;;;21.61;65.07;101211.56;1766489;81;21683;-75
2021/06/06 10:45:58;;;;;;;4.78;3.60;;;;;;;21.85;65.34;101197.62;1767090;81;21152;-73
2021/06/06 10:48:32;;;;;;;4.30;3.33;;;;;;;22.18;63.33;101199.36;1767573;81;21093;-73
2021/06/06 10:51:14;;;;;;;3.65;3.05;;;;;;;22.32;59.68;101196.58;1766197;81;20955;-71
2021/06/06 10:53:54;;;;;;;5.95;3.70;;;;;;;22.26;59.19;101187.50;1767670;81;20998;-71
2021/06/06 10:56:56;;;;;;;3.27;2.98;;;;;;;22.22;60.15;101191.45;1767062;81;21029;-75
2021/06/06 10:59:34;;;;;;;4.05;2.95;;;;;;;22.34;54.66;101192.77;1766966;81;21133;-73
2021/06/06 11:02:02;;;;;;;5.33;3.20;;;;;;;22.51;54.53;101186.51;1766709;81;21421;-73
2021/06/06 11:04:34;;;;;;;3.95;2.83;;;;;;;22.60;54.62;101196.09;1766643;81;21049;-75
2021/06/06 11:07:07;;;;;;;6.08;3.33;;;;;;;22.69;52.16;101192.97;1739835;81;21048;-72
2021/06/06 11:09:36;;;;;;;3.25;2.55;;;;;;;22.62;53.24;101199.38;1766989;81;20957;-78
2021/06/06 11:12:12;;;;;;;4.00;2.87;;;;;;;22.56;54.92;101192.61;1766863;81;21092;-74
2021/06/06 11:14:49;;;;;;;5.55;3.02;;;;;;;22.44;55.21;101196.09;1766968;81;21021;-73
2021/06/06 11:17:35;;;;;;;3.42;2.85;;;;;;;22.29;55.84;101195.09;1767100;81;21001;-76
2021/06/06 11:20:27;;;;;;;6.60;2.50;;;;;;;22.15;55.03;101200.52;1766799;81;21571;-73
2021/06/06 11:22:54;;;;;;;3.25;2.65;;;;;;;21.98;55.39;101193.57;1766871;81;21140;-74
2021/06/06 11:25:38;;;;;;;2.75;2.50;;;;;;;21.88;54.51;101198.13;1766852;81;21933;-74
2021/06/06 11:28:29;;;;;;;4.08;2.67;;;;;;;21.86;55.41;101200.58;1766836;81;20957;-69
2021/06/06 11:30:56;;;;;;;4.30;2.85;;;;;;;21.86;55.62;101193.48;1766943;81;20990;-70
2021/06/06 11:33:46;;;;;;;3.30;2.77;;;;;;;21.88;55.35;101189.37;1764158;81;21057;-76
2021/06/06 11:36:13;;;;;;;3.55;2.70;;;;;;;21.96;55.88;101186.77;1767201;81;20988;-69
2021/06/06 11:38:48;;;;;;;4.67;2.80;;;;;;;22.11;53.58;101178.04;1767039;81;21108;-70
2021/06/06 11:41:28;;;;;;;3.37;2.52;;;;;;;22.37;51.85;101178.42;1767274;81;20935;-73
2021/06/06 11:44:09;;;;;;;3.10;2.80;;;;;;;22.58;51.27;101175.60;1766909;81;21046;-75
2021/06/06 11:46:42;;;;;;;3.67;2.50;;;;;;;22.77;50.58;101172.30;1767043;81;21054;-70
2021/06/06 11:49:28;;;;;;;2.85;2.42;;;;;;;22.97;50.14;101164.33;1766235;81;20987;-72